Augusta, Illinois
Current Conditions -  °F | °C
As of 7:54 PM on Friday 28 Nov 2014 (Local Time) from KUIN Reporting Station
Clear Clear  
Wind Chill: 31°   Ceiling: Unl
Heat Index: 37°   Visibility: 10mi
Dew Point: 31°   Wind: 8mph
Humidity: 79%   Direction: 150°SSE
Pressure: 29.82"   Gusts: NA
Location:  40.23°N, 90.95°W
Report Text: KUIN 290154Z AUTO 15007KT 10SM CLR 03/M01 A2982 RMK AO2 SLP106 T00281006
Loading
Personal Weather Stations






























Interactive Weather Map New forecast layout! Learn more

10-Day Weather Forecast

Advertisements
Track Severe Weather on mobile